sensor_id;sensor_type;location;lat;lon;timestamp;temperature;humidity
10530;DHT22;5313;48.834;9.228;2023-07-09T00:01:50;23.50;99.90
10530;DHT22;5313;48.834;9.228;2023-07-09T00:04:16;23.50;99.90
10530;DHT22;5313;48.834;9.228;2023-07-09T00:06:43;23.20;99.90
10530;DHT22;5313;48.834;9.228;2023-07-09T00:09:20;23.10;99.90
10530;DHT22;5313;48.834;9.228;2023-07-09T00:11:46;23.00;99.90
10530;DHT22;5313;48.834;9.228;2023-07-09T00:14:14;23.30;99.90
10530;DHT22;5313;48.834;9.228;2023-07-09T00:16:41;23.30;99.90
10530;DHT22;5313;48.834;9.228;2023-07-09T00:19:15;23.10;99.90
10530;DHT22;5313;48.834;9.228;2023-07-09T00:21:42;23.20;99.90
10530;DHT22;5313;48.834;9.228;2023-07-09T00:24:11;22.90;99.90
10530;DHT22;5313;48.834;9.228;2023-07-09T00:26:36;22.70;99.90
10530;DHT22;5313;48.834;9.228;2023-07-09T00:29:03;22.60;99.90
10530;DHT22;5313;48.834;9.228;2023-07-09T00:31:29;22.70;99.90
10530;DHT22;5313;48.834;9.228;2023-07-09T00:33:55;22.90;99.90
10530;DHT22;5313;48.834;9.228;2023-07-09T00:36:30;22.90;99.90
10530;DHT22;5313;48.834;9.228;2023-07-09T00:38:56;23.00;99.90
10530;DHT22;5313;48.834;9.228;2023-07-09T00:41:25;23.40;99.90
10530;DHT22;5313;48.834;9.228;2023-07-09T00:43:52;23.40;99.90
10530;DHT22;5313;48.834;9.228;2023-07-09T00:49:00;23.40;99.90
10530;DHT22;5313;48.834;9.228;2023-07-09T00:51:30;23.40;99.90
10530;DHT22;5313;48.834;9.228;2023-07-09T00:54:05;23.20;99.90
10530;DHT22;5313;48.834;9.228;2023-07-09T00:56:38;23.20;99.90
10530;DHT22;5313;48.834;9.228;2023-07-09T00:59:07;23.00;99.90
10530;DHT22;5313;48.834;9.228;2023-07-09T01:01:34;23.10;99.90
10530;DHT22;5313;48.834;9.228;2023-07-09T01:04:01;23.10;99.90
10530;DHT22;5313;48.834;9.228;2023-07-09T01:06:31;23.10;99.90
10530;DHT22;5313;48.834;9.228;2023-07-09T01:08:59;23.10;99.90
10530;DHT22;5313;48.834;9.228;2023-07-09T01:11:26;23.10;99.90
10530;DHT22;5313;48.834;9.228;2023-07-09T01:13:55;23.10;99.90
10530;DHT22;5313;48.834;9.228;2023-07-09T01:16:22;22.90;99.90
10530;DHT22;5313;48.834;9.228;2023-07-09T01:18:52;22.90;99.90
10530;DHT22;5313;48.834;9.228;2023-07-09T01:21:18;22.90;99.90
10530;DHT22;5313;48.834;9.228;2023-07-09T01:23:46;22.90;99.90
10530;DHT22;5313;48.834;9.228;2023-07-09T01:26:23;22.80;99.90
10530;DHT22;5313;48.834;9.228;2023-07-09T01:28:54;22.90;99.90
10530;DHT22;5313;48.834;9.228;2023-07-09T01:31:20;22.90;99.90
10530;DHT22;5313;48.834;9.228;2023-07-09T01:33:49;22.90;99.90
10530;DHT22;5313;48.834;9.228;2023-07-09T01:36:21;23.00;99.90
10530;DHT22;5313;48.834;9.228;2023-07-09T01:38:49;22.90;99.90
10530;DHT22;5313;48.834;9.228;2023-07-09T01:41:15;22.70;99.90
10530;DHT22;5313;48.834;9.228;2023-07-09T01:43:43;22.60;99.90
10530;DHT22;5313;48.834;9.228;2023-07-09T01:46:10;22.60;99.90
10530;DHT22;5313;48.834;9.228;2023-07-09T01:48:38;22.80;99.90
10530;DHT22;5313;48.834;9.228;2023-07-09T01:51:10;22.80;99.90
10530;DHT22;5313;48.834;9.228;2023-07-09T01:53:38;22.90;99.90
10530;DHT22;5313;48.834;9.228;2023-07-09T01:56:05;22.80;99.90
10530;DHT22;5313;48.834;9.228;2023-07-09T01:58:33;22.80;99.90
10530;DHT22;5313;48.834;9.228;2023-07-09T02:00:59;22.60;99.90
10530;DHT22;5313;48.834;9.228;2023-07-09T02:03:25;22.30;99.90
10530;DHT22;5313;48.834;9.228;2023-07-09T02:05:54;22.50;99.90
10530;DHT22;5313;48.834;9.228;2023-07-09T02:08:20;22.70;99.90
10530;DHT22;5313;48.834;9.228;2023-07-09T02:10:49;22.70;99.90
10530;DHT22;5313;48.834;9.228;2023-07-09T02:13:15;22.60;99.90
10530;DHT22;5313;48.834;9.228;2023-07-09T02:15:42;22.70;99.90
10530;DHT22;5313;48.834;9.228;2023-07-09T02:18:10;22.70;99.90
10530;DHT22;5313;48.834;9.228;2023-07-09T02:20:35;22.50;99.90
10530;DHT22;5313;48.834;9.228;2023-07-09T02:23:02;22.20;99.90
10530;DHT22;5313;48.834;9.228;2023-07-09T02:25:28;22.40;99.90
10530;DHT22;5313;48.834;9.228;2023-07-09T02:27:53;22.60;99.90
10530;DHT22;5313;48.834;9.228;2023-07-09T02:30:19;22.50;99.90
10530;DHT22;5313;48.834;9.228;2023-07-09T02:32:44;22.40;99.90
10530;DHT22;5313;48.834;9.228;2023-07-09T02:35:10;22.60;99.90
10530;DHT22;5313;48.834;9.228;2023-07-09T02:37:36;22.40;99.90
10530;DHT22;5313;48.834;9.228;2023-07-09T02:40:02;22.40;99.90
10530;DHT22;5313;48.834;9.228;2023-07-09T02:42:29;22.40;99.90
10530;DHT22;5313;48.834;9.228;2023-07-09T02:44:54;22.30;99.90
10530;DHT22;5313;48.834;9.228;2023-07-09T02:47:20;22.20;99.90
10530;DHT22;5313;48.834;9.228;2023-07-09T02:49:45;22.10;99.90
10530;DHT22;5313;48.834;9.228;2023-07-09T02:52:11;22.00;99.90
10530;DHT22;5313;48.834;9.228;2023-07-09T02:54:37;22.10;99.90
10530;DHT22;5313;48.834;9.228;2023-07-09T02:57:02;22.10;99.90
10530;DHT22;5313;48.834;9.228;2023-07-09T02:59:28;21.90;99.90
10530;DHT22;5313;48.834;9.228;2023-07-09T03:01:55;21.80;99.90
10530;DHT22;5313;48.834;9.228;2023-07-09T03:04:20;21.70;99.90
10530;DHT22;5313;48.834;9.228;2023-07-09T03:06:46;21.70;99.90
10530;DHT22;5313;48.834;9.228;2023-07-09T03:09:11;21.80;99.90
10530;DHT22;5313;48.834;9.228;2023-07-09T03:11:37;22.10;99.90
10530;DHT22;5313;48.834;9.228;2023-07-09T03:14:03;22.00;99.90
10530;DHT22;5313;48.834;9.228;2023-07-09T03:16:31;21.90;99.90
10530;DHT22;5313;48.834;9.228;2023-07-09T03:18:57;22.00;99.90
10530;DHT22;5313;48.834;9.228;2023-07-09T03:21:24;21.80;99.90
10530;DHT22;5313;48.834;9.228;2023-07-09T03:23:51;21.80;99.90
10530;DHT22;5313;48.834;9.228;2023-07-09T03:26:16;21.70;99.90
10530;DHT22;5313;48.834;9.228;2023-07-09T03:28:42;21.50;99.90
10530;DHT22;5313;48.834;9.228;2023-07-09T03:31:08;21.50;99.90
10530;DHT22;5313;48.834;9.228;2023-07-09T03:33:33;21.60;99.90
10530;DHT22;5313;48.834;9.228;2023-07-09T03:35:59;21.90;99.90
10530;DHT22;5313;48.834;9.228;2023-07-09T03:38:24;21.90;99.90
10530;DHT22;5313;48.834;9.228;2023-07-09T03:40:54;22.00;99.90
10530;DHT22;5313;48.834;9.228;2023-07-09T03:43:20;23.70;99.90
10530;DHT22;5313;48.834;9.228;2023-07-09T03:45:46;21.90;99.90
10530;DHT22;5313;48.834;9.228;2023-07-09T03:48:12;21.70;99.90
10530;DHT22;5313;48.834;9.228;2023-07-09T03:50:38;21.60;99.90
10530;DHT22;5313;48.834;9.228;2023-07-09T03:53:03;21.70;99.90
10530;DHT22;5313;48.834;9.228;2023-07-09T03:55:31;21.70;99.90
10530;DHT22;5313;48.834;9.228;2023-07-09T03:57:56;21.40;99.90
10530;DHT22;5313;48.834;9.228;2023-07-09T04:00:22;21.50;99.90
10530;DHT22;5313;48.834;9.228;2023-07-09T04:02:48;21.70;99.90
10530;DHT22;5313;48.834;9.228;2023-07-09T04:05:14;21.60;99.90
10530;DHT22;5313;48.834;9.228;2023-07-09T04:07:39;21.50;99.90
10530;DHT22;5313;48.834;9.228;2023-07-09T04:10:06;21.80;99.90
10530;DHT22;5313;48.834;9.228;2023-07-09T04:12:32;21.80;99.90
10530;DHT22;5313;48.834;9.228;2023-07-09T04:14:57;21.90;99.90
10530;DHT22;5313;48.834;9.228;2023-07-09T04:17:23;21.70;99.90
10530;DHT22;5313;48.834;9.228;2023-07-09T04:19:50;21.80;99.90
10530;DHT22;5313;48.834;9.228;2023-07-09T04:22:16;21.70;99.90
10530;DHT22;5313;48.834;9.228;2023-07-09T04:24:41;21.70;99.90
10530;DHT22;5313;48.834;9.228;2023-07-09T04:27:08;21.60;99.90
10530;DHT22;5313;48.834;9.228;2023-07-09T04:29:33;21.50;99.90
10530;DHT22;5313;48.834;9.228;2023-07-09T04:32:01;21.40;99.90
10530;DHT22;5313;48.834;9.228;2023-07-09T04:34:26;21.30;99.90
10530;DHT22;5313;48.834;9.228;2023-07-09T04:36:52;21.40;99.90
10530;DHT22;5313;48.834;9.228;2023-07-09T04:39:17;21.70;99.90
10530;DHT22;5313;48.834;9.228;2023-07-09T04:41:43;21.80;99.90
10530;DHT22;5313;48.834;9.228;2023-07-09T04:44:08;21.70;99.90
10530;DHT22;5313;48.834;9.228;2023-07-09T04:46:34;21.80;99.90
10530;DHT22;5313;48.834;9.228;2023-07-09T04:48:59;21.60;99.90
10530;DHT22;5313;48.834;9.228;2023-07-09T04:51:26;21.70;99.90
10530;DHT22;5313;48.834;9.228;2023-07-09T04:53:51;22.00;99.90
10530;DHT22;5313;48.834;9.228;2023-07-09T04:56:17;22.10;99.90
10530;DHT22;5313;48.834;9.228;2023-07-09T04:58:43;22.00;99.90
10530;DHT22;5313;48.834;9.228;2023-07-09T05:01:09;21.90;99.90
10530;DHT22;5313;48.834;9.228;2023-07-09T05:03:34;22.10;99.90
10530;DHT22;5313;48.834;9.228;2023-07-09T05:06:00;22.10;99.90
10530;DHT22;5313;48.834;9.228;2023-07-09T05:08:25;22.10;99.90
10530;DHT22;5313;48.834;9.228;2023-07-09T05:10:52;22.10;99.90
10530;DHT22;5313;48.834;9.228;2023-07-09T05:13:18;22.20;99.90
10530;DHT22;5313;48.834;9.228;2023-07-09T05:15:46;22.40;99.90
10530;DHT22;5313;48.834;9.228;2023-07-09T05:18:13;22.50;99.90
10530;DHT22;5313;48.834;9.228;2023-07-09T05:20:40;22.40;99.90
10530;DHT22;5313;48.834;9.228;2023-07-09T05:23:07;22.30;99.90
10530;DHT22;5313;48.834;9.228;2023-07-09T05:25:33;22.50;99.90
10530;DHT22;5313;48.834;9.228;2023-07-09T05:27:58;22.60;99.90
10530;DHT22;5313;48.834;9.228;2023-07-09T05:30:24;22.60;99.90
10530;DHT22;5313;48.834;9.228;2023-07-09T05:32:49;22.60;99.90
10530;DHT22;5313;48.834;9.228;2023-07-09T05:35:15;22.60;99.90
10530;DHT22;5313;48.834;9.228;2023-07-09T05:37:40;22.70;99.90
10530;DHT22;5313;48.834;9.228;2023-07-09T05:40:07;22.70;99.90
10530;DHT22;5313;48.834;9.228;2023-07-09T05:42:33;22.80;99.90
10530;DHT22;5313;48.834;9.228;2023-07-09T05:44:59;22.80;99.90
10530;DHT22;5313;48.834;9.228;2023-07-09T05:47:25;22.80;99.90
10530;DHT22;5313;48.834;9.228;2023-07-09T05:49:51;22.90;99.90
10530;DHT22;5313;48.834;9.228;2023-07-09T05:52:18;23.00;99.90
10530;DHT22;5313;48.834;9.228;2023-07-09T05:54:44;23.20;99.90
10530;DHT22;5313;48.834;9.228;2023-07-09T05:57:10;23.30;99.90
10530;DHT22;5313;48.834;9.228;2023-07-09T05:59:35;23.40;99.90
10530;DHT22;5313;48.834;9.228;2023-07-09T06:02:01;23.40;99.90
10530;DHT22;5313;48.834;9.228;2023-07-09T06:04:28;23.50;99.90
10530;DHT22;5313;48.834;9.228;2023-07-09T06:06:54;23.60;99.90
10530;DHT22;5313;48.834;9.228;2023-07-09T06:09:19;23.70;99.90
10530;DHT22;5313;48.834;9.228;2023-07-09T06:11:44;23.80;99.90
10530;DHT22;5313;48.834;9.228;2023-07-09T06:14:10;23.80;99.90
10530;DHT22;5313;48.834;9.228;2023-07-09T06:16:36;23.80;99.90
10530;DHT22;5313;48.834;9.228;2023-07-09T06:19:03;23.80;99.90
10530;DHT22;5313;48.834;9.228;2023-07-09T06:21:28;23.90;99.90
10530;DHT22;5313;48.834;9.228;2023-07-09T06:23:54;24.10;99.90
10530;DHT22;5313;48.834;9.228;2023-07-09T06:26:19;24.20;99.90
10530;DHT22;5313;48.834;9.228;2023-07-09T06:28:46;24.40;99.90
10530;DHT22;5313;48.834;9.228;2023-07-09T06:31:11;24.50;99.90
10530;DHT22;5313;48.834;9.228;2023-07-09T06:33:37;24.60;99.90
10530;DHT22;5313;48.834;9.228;2023-07-09T06:36:02;24.60;99.90
10530;DHT22;5313;48.834;9.228;2023-07-09T06:38:28;24.70;99.90
10530;DHT22;5313;48.834;9.228;2023-07-09T06:40:55;24.70;99.90
10530;DHT22;5313;48.834;9.228;2023-07-09T06:43:21;24.70;99.90
10530;DHT22;5313;48.834;9.228;2023-07-09T06:45:57;24.80;99.90
10530;DHT22;5313;48.834;9.228;2023-07-09T06:48:24;25.00;99.90
10530;DHT22;5313;48.834;9.228;2023-07-09T06:50:51;25.20;99.90
10530;DHT22;5313;48.834;9.228;2023-07-09T06:53:17;25.30;99.90
10530;DHT22;5313;48.834;9.228;2023-07-09T06:55:42;25.50;99.90
10530;DHT22;5313;48.834;9.228;2023-07-09T06:58:08;25.60;99.90
10530;DHT22;5313;48.834;9.228;2023-07-09T07:00:37;25.60;99.90
10530;DHT22;5313;48.834;9.228;2023-07-09T07:03:03;25.60;99.90
10530;DHT22;5313;48.834;9.228;2023-07-09T07:05:29;25.70;99.90
10530;DHT22;5313;48.834;9.228;2023-07-09T07:07:54;25.80;99.90
10530;DHT22;5313;48.834;9.228;2023-07-09T07:10:20;25.80;99.90
10530;DHT22;5313;48.834;9.228;2023-07-09T07:12:47;25.90;99.90
10530;DHT22;5313;48.834;9.228;2023-07-09T07:15:16;26.20;99.90
10530;DHT22;5313;48.834;9.228;2023-07-09T07:17:42;26.30;99.90
10530;DHT22;5313;48.834;9.228;2023-07-09T07:20:09;26.40;99.90
10530;DHT22;5313;48.834;9.228;2023-07-09T07:22:36;26.50;99.90
10530;DHT22;5313;48.834;9.228;2023-07-09T07:25:03;26.70;99.90
10530;DHT22;5313;48.834;9.228;2023-07-09T07:27:29;26.70;99.90
10530;DHT22;5313;48.834;9.228;2023-07-09T07:29:54;26.90;99.90
10530;DHT22;5313;48.834;9.228;2023-07-09T07:32:20;27.00;99.90
10530;DHT22;5313;48.834;9.228;2023-07-09T07:34:47;27.10;99.90
10530;DHT22;5313;48.834;9.228;2023-07-09T07:37:13;27.10;99.90
10530;DHT22;5313;48.834;9.228;2023-07-09T07:39:38;27.30;99.90
10530;DHT22;5313;48.834;9.228;2023-07-09T07:42:04;27.50;99.90
10530;DHT22;5313;48.834;9.228;2023-07-09T07:44:30;27.60;99.90
10530;DHT22;5313;48.834;9.228;2023-07-09T07:46:55;27.60;99.90
10530;DHT22;5313;48.834;9.228;2023-07-09T07:49:21;27.50;99.90
10530;DHT22;5313;48.834;9.228;2023-07-09T07:51:46;27.60;99.90
10530;DHT22;5313;48.834;9.228;2023-07-09T07:54:12;27.70;99.90
10530;DHT22;5313;48.834;9.228;2023-07-09T07:56:38;27.80;99.90
10530;DHT22;5313;48.834;9.228;2023-07-09T07:59:03;27.90;99.90
10530;DHT22;5313;48.834;9.228;2023-07-09T08:01:29;28.10;99.90
10530;DHT22;5313;48.834;9.228;2023-07-09T08:03:55;28.30;99.90
10530;DHT22;5313;48.834;9.228;2023-07-09T08:06:21;28.30;99.90
10530;DHT22;5313;48.834;9.228;2023-07-09T08:08:47;28.20;99.90
10530;DHT22;5313;48.834;9.228;2023-07-09T08:11:15;28.20;99.90
10530;DHT22;5313;48.834;9.228;2023-07-09T08:13:41;28.40;99.90
10530;DHT22;5313;48.834;9.228;2023-07-09T08:16:07;28.50;99.90
10530;DHT22;5313;48.834;9.228;2023-07-09T08:18:33;28.50;99.90
10530;DHT22;5313;48.834;9.228;2023-07-09T08:21:00;28.70;99.90
10530;DHT22;5313;48.834;9.228;2023-07-09T08:23:25;28.80;99.90
10530;DHT22;5313;48.834;9.228;2023-07-09T08:25:58;28.80;99.90
10530;DHT22;5313;48.834;9.228;2023-07-09T08:28:25;28.80;99.70
10530;DHT22;5313;48.834;9.228;2023-07-09T08:30:54;28.90;99.30
10530;DHT22;5313;48.834;9.228;2023-07-09T08:33:20;29.00;98.50
10530;DHT22;5313;48.834;9.228;2023-07-09T08:35:48;29.10;98.20
10530;DHT22;5313;48.834;9.228;2023-07-09T08:38:14;28.90;98.90
10530;DHT22;5313;48.834;9.228;2023-07-09T08:40:40;28.90;99.00
10530;DHT22;5313;48.834;9.228;2023-07-09T08:43:48;29.00;98.80
10530;DHT22;5313;48.834;9.228;2023-07-09T08:46:46;29.00;98.40
10530;DHT22;5313;48.834;9.228;2023-07-09T08:49:21;29.30;97.50
10530;DHT22;5313;48.834;9.228;2023-07-09T08:51:48;29.20;97.70
10530;DHT22;5313;48.834;9.228;2023-07-09T08:54:22;29.50;96.20
10530;DHT22;5313;48.834;9.228;2023-07-09T08:56:50;29.60;95.70
10530;DHT22;5313;48.834;9.228;2023-07-09T08:59:17;29.70;98.10
10530;DHT22;5313;48.834;9.228;2023-07-09T09:01:51;29.90;96.60
10530;DHT22;5313;48.834;9.228;2023-07-09T09:04:29;30.20;95.10
10530;DHT22;5313;48.834;9.228;2023-07-09T09:07:08;30.30;94.40
10530;DHT22;5313;48.834;9.228;2023-07-09T09:09:46;30.10;94.20
10530;DHT22;5313;48.834;9.228;2023-07-09T09:12:23;30.20;93.00
10530;DHT22;5313;48.834;9.228;2023-07-09T09:14:58;30.40;92.60
10530;DHT22;5313;48.834;9.228;2023-07-09T09:17:26;30.60;90.40
10530;DHT22;5313;48.834;9.228;2023-07-09T09:20:00;30.60;89.20
10530;DHT22;5313;48.834;9.228;2023-07-09T09:22:48;30.60;89.50
10530;DHT22;5313;48.834;9.228;2023-07-09T09:27:41;31.00;86.80
10530;DHT22;5313;48.834;9.228;2023-07-09T09:30:14;31.00;85.60
10530;DHT22;5313;48.834;9.228;2023-07-09T09:32:47;31.00;85.20
10530;DHT22;5313;48.834;9.228;2023-07-09T09:35:15;31.00;84.60
10530;DHT22;5313;48.834;9.228;2023-07-09T09:37:49;31.20;81.90
10530;DHT22;5313;48.834;9.228;2023-07-09T09:40:18;31.20;81.30
10530;DHT22;5313;48.834;9.228;2023-07-09T09:42:44;31.30;82.30
10530;DHT22;5313;48.834;9.228;2023-07-09T09:45:18;31.50;78.80
10530;DHT22;5313;48.834;9.228;2023-07-09T09:47:48;31.50;76.60
10530;DHT22;5313;48.834;9.228;2023-07-09T09:50:16;31.80;75.70
10530;DHT22;5313;48.834;9.228;2023-07-09T09:52:43;31.90;77.00
10530;DHT22;5313;48.834;9.228;2023-07-09T09:55:15;32.00;75.80
10530;DHT22;5313;48.834;9.228;2023-07-09T09:57:51;32.20;73.60
10530;DHT22;5313;48.834;9.228;2023-07-09T10:00:17;32.30;70.30
10530;DHT22;5313;48.834;9.228;2023-07-09T10:02:44;32.40;70.80
10530;DHT22;5313;48.834;9.228;2023-07-09T10:05:25;32.80;68.40
10530;DHT22;5313;48.834;9.228;2023-07-09T10:08:06;33.00;71.50
10530;DHT22;5313;48.834;9.228;2023-07-09T10:10:33;33.00;64.80
10530;DHT22;5313;48.834;9.228;2023-07-09T10:13:15;33.00;62.50
10530;DHT22;5313;48.834;9.228;2023-07-09T10:18:53;34.00;60.40
10530;DHT22;5313;48.834;9.228;2023-07-09T10:21:27;33.80;58.60
10530;DHT22;5313;48.834;9.228;2023-07-09T10:27:44;34.10;55.00
10530;DHT22;5313;48.834;9.228;2023-07-09T10:30:35;34.50;54.30
10530;DHT22;5313;48.834;9.228;2023-07-09T10:32:48;34.10;54.90
10530;DHT22;5313;48.834;9.228;2023-07-09T10:35:29;34.40;53.70
10530;DHT22;5313;48.834;9.228;2023-07-09T10:38:29;34.20;49.50
10530;DHT22;5313;48.834;9.228;2023-07-09T10:41:00;34.10;52.20
10530;DHT22;5313;48.834;9.228;2023-07-09T10:43:44;34.30;53.70
10530;DHT22;5313;48.834;9.228;2023-07-09T10:46:15;34.60;50.20
10530;DHT22;5313;48.834;9.228;2023-07-09T10:48:44;34.70;50.40
10530;DHT22;5313;48.834;9.228;2023-07-09T10:51:30;34.40;50.90
10530;DHT22;5313;48.834;9.228;2023-07-09T10:56:29;34.90;51.80
10530;DHT22;5313;48.834;9.228;2023-07-09T10:59:11;35.20;51.00
10530;DHT22;5313;48.834;9.228;2023-07-09T11:01:41;35.60;48.40
10530;DHT22;5313;48.834;9.228;2023-07-09T11:06:52;35.50;46.30
10530;DHT22;5313;48.834;9.228;2023-07-09T11:09:26;35.50;46.90
10530;DHT22;5313;48.834;9.228;2023-07-09T11:11:56;35.20;49.10
10530;DHT22;5313;48.834;9.228;2023-07-09T11:16:57;35.60;47.70
10530;DHT22;5313;48.834;9.228;2023-07-09T11:19:24;35.20;47.50
10530;DHT22;5313;48.834;9.228;2023-07-09T11:22:06;34.80;49.10
10530;DHT22;5313;48.834;9.228;2023-07-09T11:27:29;35.80;46.70
10530;DHT22;5313;48.834;9.228;2023-07-09T11:29:58;35.90;44.10
10530;DHT22;5313;48.834;9.228;2023-07-09T11:32:24;35.60;44.60
10530;DHT22;5313;48.834;9.228;2023-07-09T11:34:50;35.60;43.30
10530;DHT22;5313;48.834;9.228;2023-07-09T11:37:16;35.40;43.80
10530;DHT22;5313;48.834;9.228;2023-07-09T11:39:47;35.60;43.60
10530;DHT22;5313;48.834;9.228;2023-07-09T11:42:34;36.10;43.70
10530;DHT22;5313;48.834;9.228;2023-07-09T11:45:13;36.20;43.60
10530;DHT22;5313;48.834;9.228;2023-07-09T11:47:46;36.20;44.00
10530;DHT22;5313;48.834;9.228;2023-07-09T11:52:51;37.00;44.80
10530;DHT22;5313;48.834;9.228;2023-07-09T11:55:41;37.00;42.90
10530;DHT22;5313;48.834;9.228;2023-07-09T11:58:10;36.50;44.90
10530;DHT22;5313;48.834;9.228;2023-07-09T12:00:41;36.20;44.20
10530;DHT22;5313;48.834;9.228;2023-07-09T12:03:11;36.80;44.00
10530;DHT22;5313;48.834;9.228;2023-07-09T12:05:41;37.30;42.70
10530;DHT22;5313;48.834;9.228;2023-07-09T12:08:14;37.50;42.90
10530;DHT22;5313;48.834;9.228;2023-07-09T12:10:42;38.00;42.60
10530;DHT22;5313;48.834;9.228;2023-07-09T12:13:10;37.80;40.10
10530;DHT22;5313;48.834;9.228;2023-07-09T12:15:39;37.50;40.80
10530;DHT22;5313;48.834;9.228;2023-07-09T12:18:11;37.50;40.00
10530;DHT22;5313;48.834;9.228;2023-07-09T12:20:38;37.60;40.50
10530;DHT22;5313;48.834;9.228;2023-07-09T12:23:27;37.60;41.50
10530;DHT22;5313;48.834;9.228;2023-07-09T12:25:53;36.90;41.70
10530;DHT22;5313;48.834;9.228;2023-07-09T12:28:20;37.30;41.20
10530;DHT22;5313;48.834;9.228;2023-07-09T12:30:50;37.70;40.00
10530;DHT22;5313;48.834;9.228;2023-07-09T12:33:18;38.00;40.30
10530;DHT22;5313;48.834;9.228;2023-07-09T12:35:45;38.30;37.70
10530;DHT22;5313;48.834;9.228;2023-07-09T12:38:19;37.80;38.20
10530;DHT22;5313;48.834;9.228;2023-07-09T12:40:47;38.40;38.60
10530;DHT22;5313;48.834;9.228;2023-07-09T12:43:13;38.30;37.70
10530;DHT22;5313;48.834;9.228;2023-07-09T12:45:39;38.10;38.20
10530;DHT22;5313;48.834;9.228;2023-07-09T12:48:05;37.20;40.50
10530;DHT22;5313;48.834;9.228;2023-07-09T12:50:35;38.10;38.50
10530;DHT22;5313;48.834;9.228;2023-07-09T12:53:14;38.50;36.20
10530;DHT22;5313;48.834;9.228;2023-07-09T12:55:42;38.10;35.90
10530;DHT22;5313;48.834;9.228;2023-07-09T12:58:21;38.40;36.50
10530;DHT22;5313;48.834;9.228;2023-07-09T13:00:49;37.80;37.90
10530;DHT22;5313;48.834;9.228;2023-07-09T13:03:25;38.80;36.20
10530;DHT22;5313;48.834;9.228;2023-07-09T13:05:56;38.70;34.80
10530;DHT22;5313;48.834;9.228;2023-07-09T13:08:24;38.40;35.00
10530;DHT22;5313;48.834;9.228;2023-07-09T13:10:51;38.50;35.50
10530;DHT22;5313;48.834;9.228;2023-07-09T13:13:19;37.50;36.50
10530;DHT22;5313;48.834;9.228;2023-07-09T13:15:49;37.30;38.00
10530;DHT22;5313;48.834;9.228;2023-07-09T13:18:16;37.20;37.30
10530;DHT22;5313;48.834;9.228;2023-07-09T13:20:43;37.00;38.60
10530;DHT22;5313;48.834;9.228;2023-07-09T13:25:46;37.20;37.50
10530;DHT22;5313;48.834;9.228;2023-07-09T13:28:27;38.00;36.20
10530;DHT22;5313;48.834;9.228;2023-07-09T13:30:59;38.00;35.10
10530;DHT22;5313;48.834;9.228;2023-07-09T13:33:26;38.40;36.00
10530;DHT22;5313;48.834;9.228;2023-07-09T13:35:51;38.40;36.20
10530;DHT22;5313;48.834;9.228;2023-07-09T13:38:20;38.90;36.70
10530;DHT22;5313;48.834;9.228;2023-07-09T13:40:49;38.90;36.70
10530;DHT22;5313;48.834;9.228;2023-07-09T13:43:19;39.20;34.80
10530;DHT22;5313;48.834;9.228;2023-07-09T13:45:46;38.60;36.20
10530;DHT22;5313;48.834;9.228;2023-07-09T13:48:16;38.40;36.60
10530;DHT22;5313;48.834;9.228;2023-07-09T13:50:43;38.50;37.50
10530;DHT22;5313;48.834;9.228;2023-07-09T13:53:15;38.70;37.50
10530;DHT22;5313;48.834;9.228;2023-07-09T13:55:41;38.90;36.80
10530;DHT22;5313;48.834;9.228;2023-07-09T13:58:10;38.40;35.40
10530;DHT22;5313;48.834;9.228;2023-07-09T14:00:35;38.50;36.20
10530;DHT22;5313;48.834;9.228;2023-07-09T14:03:01;38.10;35.90
10530;DHT22;5313;48.834;9.228;2023-07-09T14:05:27;37.90;36.60
10530;DHT22;5313;48.834;9.228;2023-07-09T14:07:53;37.90;36.00
10530;DHT22;5313;48.834;9.228;2023-07-09T14:10:19;38.30;36.60
10530;DHT22;5313;48.834;9.228;2023-07-09T14:12:45;37.90;36.90
10530;DHT22;5313;48.834;9.228;2023-07-09T14:15:19;37.30;38.10
10530;DHT22;5313;48.834;9.228;2023-07-09T14:17:45;38.40;36.60
10530;DHT22;5313;48.834;9.228;2023-07-09T14:20:17;38.40;36.20
10530;DHT22;5313;48.834;9.228;2023-07-09T14:22:43;38.00;36.70
10530;DHT22;5313;48.834;9.228;2023-07-09T14:25:17;37.80;37.80
10530;DHT22;5313;48.834;9.228;2023-07-09T14:27:43;37.60;37.90
10530;DHT22;5313;48.834;9.228;2023-07-09T14:30:14;37.30;36.80
10530;DHT22;5313;48.834;9.228;2023-07-09T14:32:40;37.30;36.50
10530;DHT22;5313;48.834;9.228;2023-07-09T14:35:13;37.40;36.30
10530;DHT22;5313;48.834;9.228;2023-07-09T14:37:39;37.70;37.20
10530;DHT22;5313;48.834;9.228;2023-07-09T14:40:05;38.20;36.90
10530;DHT22;5313;48.834;9.228;2023-07-09T14:42:31;38.50;36.10
10530;DHT22;5313;48.834;9.228;2023-07-09T14:44:57;38.30;38.50
10530;DHT22;5313;48.834;9.228;2023-07-09T14:47:22;37.80;37.50
10530;DHT22;5313;48.834;9.228;2023-07-09T14:49:48;37.60;37.10
10530;DHT22;5313;48.834;9.228;2023-07-09T14:52:18;37.80;37.40
10530;DHT22;5313;48.834;9.228;2023-07-09T14:54:45;37.60;37.10
10530;DHT22;5313;48.834;9.228;2023-07-09T14:57:21;38.20;36.70
10530;DHT22;5313;48.834;9.228;2023-07-09T14:59:48;38.00;37.90
10530;DHT22;5313;48.834;9.228;2023-07-09T15:02:37;37.70;37.20
10530;DHT22;5313;48.834;9.228;2023-07-09T15:05:11;36.70;38.80
10530;DHT22;5313;48.834;9.228;2023-07-09T15:07:37;37.10;38.40
10530;DHT22;5313;48.834;9.228;2023-07-09T15:10:03;37.10;38.20
10530;DHT22;5313;48.834;9.228;2023-07-09T15:12:33;36.90;39.10
10530;DHT22;5313;48.834;9.228;2023-07-09T15:15:47;36.40;40.20
10530;DHT22;5313;48.834;9.228;2023-07-09T15:17:48;36.20;40.10
10530;DHT22;5313;48.834;9.228;2023-07-09T15:20:20;36.40;40.40
10530;DHT22;5313;48.834;9.228;2023-07-09T15:22:48;36.60;39.50
10530;DHT22;5313;48.834;9.228;2023-07-09T15:25:21;36.00;40.50
10530;DHT22;5313;48.834;9.228;2023-07-09T15:27:47;35.80;40.90
10530;DHT22;5313;48.834;9.228;2023-07-09T15:30:18;36.70;40.00
10530;DHT22;5313;48.834;9.228;2023-07-09T15:32:45;36.80;41.10
10530;DHT22;5313;48.834;9.228;2023-07-09T15:35:15;36.30;40.90
10530;DHT22;5313;48.834;9.228;2023-07-09T15:37:41;35.50;41.00
10530;DHT22;5313;48.834;9.228;2023-07-09T15:40:22;35.70;41.10
10530;DHT22;5313;48.834;9.228;2023-07-09T15:42:49;35.80;41.10
10530;DHT22;5313;48.834;9.228;2023-07-09T15:45:16;36.00;40.70
10530;DHT22;5313;48.834;9.228;2023-07-09T15:47:44;36.50;38.40
10530;DHT22;5313;48.834;9.228;2023-07-09T15:50:26;36.70;38.10
10530;DHT22;5313;48.834;9.228;2023-07-09T15:52:53;36.70;38.40
10530;DHT22;5313;48.834;9.228;2023-07-09T15:55:24;36.10;40.00
10530;DHT22;5313;48.834;9.228;2023-07-09T15:57:51;36.40;40.00
10530;DHT22;5313;48.834;9.228;2023-07-09T16:00:19;36.50;41.60
10530;DHT22;5313;48.834;9.228;2023-07-09T16:02:45;36.80;39.20
10530;DHT22;5313;48.834;9.228;2023-07-09T16:05:30;37.10;38.40
10530;DHT22;5313;48.834;9.228;2023-07-09T16:07:58;37.20;38.40
10530;DHT22;5313;48.834;9.228;2023-07-09T16:10:26;37.00;37.70
10530;DHT22;5313;48.834;9.228;2023-07-09T16:12:53;37.00;37.90
10530;DHT22;5313;48.834;9.228;2023-07-09T16:15:21;37.00;38.10
10530;DHT22;5313;48.834;9.228;2023-07-09T16:17:48;36.90;37.30
10530;DHT22;5313;48.834;9.228;2023-07-09T16:20:17;36.60;38.20
10530;DHT22;5313;48.834;9.228;2023-07-09T16:22:45;36.30;39.30